Hayward, WI

7:24 PM CDT on August 29, 2016 (GMT -0500)
Malar Beach | | Change Station

Elev 1273 ft 45.93 °N, 91.40 °W | Updated 36 seconds ago

Clear
Clear
73.8 °F
Feels Like 72 °F
N
1.0
Wind Variable Wind from SE
Gusts 2.0 mph

Today
High -- | Low -- °F
--% Chance of Precip.
Yesterday
High -- | Low -- °F
Precip. -- in
Pressure 30.12 in
Visibility 10.0 miles
Clouds Clear
Heat Index 72 °F
Dew Point 70 °F
Humidity 88%
Rainfall 0.17 in
Snow Depth Not available.
6:23 AM 7:48 PM
Waning Crescent, 6% visible
METAR KHYR 292353Z AUTO 19006KT 10SM CLR 25/21 A3013 RMK AO2 LTG DSNT NE AND NW SLP199 T02500206 10289 20250 58008
Pressure 30.12 in
Visibility 10.0 miles
Clouds Clear
Heat Index 72 °F
Dew Point 70 °F
Humidity 88%
Rainfall 0.17 in
Snow Depth Not available.
6:23 AM 7:48 PM
Waning Crescent, 6% visible
METAR KHYR 292353Z AUTO 19006KT 10SM CLR 25/21 A3013 RMK AO2 LTG DSNT NE AND NW SLP199 T02500206 10289 20250 58008

10-Day Weather Forecast

Almanac

Astronomy

Aug. 29, 2016 Rise Set
Actual Time
Civil Twilight
Nautical Twilight
Astronomical Twilight
Moon
Length of Visible Light
Length of Day
Tomorrow will be .
, % of the Moon is Illuminated

Today's Extremes

State Highs State Lows

Community

WunderPhotos

Upload Photos

1,935,703 photos uploaded!

WunderBlog® & News

Nearby

Air Quality

  Air Quality AQ Index Pollutant
Not available.

Snow Depth

Station Depth Elevation

Earthquake Activity

City Distance Mag. Time & Date
Minimum magnitude displayed is 2.5.

Coastal Water Temperatures

Place Temperature

Stations

Nearby Weather Stations

Station Location Temp. Windchill Dew Point Humidity Wind Precip. Elev Updated Type
                   

Watches & Warnings

There are currently no watches in effect.